Detall de PIREP

Printer-friendly versionPDF version

[2010/07/02 16:22:00]
Flight IATA:CT2100
Pilot Number:042
Company ICAO:CAT
Aircraft Type:F100/A
PAX:40
Departing Airport: LEVC
Destination Airport: LEAS
Alternate Airport:LEMD
Online: VATSIM
Route:CENTA/N380F230 A33 PRADO/N430F350 UN733 ZMR UM30 VES
Flight Level:FL250
No Slew and time accel
No pause
Crash detect
Detect pilot in Cockpit between each 30 and 45 minutes
16:22 Zero fuel Weight: 81826 Lbs, Fuel Weight: 22696 Lbs
16:22 VATSIM:LEVC 021600Z 12013KT 9999 FEW040 30/15 Q1013 TEMPO FEW030CB
16:22 VATSIM:LEAS 021600Z 30005KT 260V340 9000 FEW006 BKN013 18/17 Q1017 TEMPO BKN008
16:22 VOICE CATALONIAN
16:31 Parking Brakes off
16:37 Take-off
16:37 Take off Weight: 104094 Lbs
16:37 Wind: 123 @ 013 Knots Heading: 116
16:37 POS N39 29 13 W000 28 31
16:37 Gear Up: 169 Knots
16:37 Flaps:2 at 169 Knots
16:38 Flaps:1 at 206 Knots
16:39 Flaps:0 at 209 Knots
16:
52 Wind:214@015 Knots Heading: 295 Ground Speed: 354 Knots Altitude 21332 ft
16:55 TOC
16:55 Fuel Weight: 20001 Lb
17:07 Wind:227@024 Knots Heading: 294 Ground Speed: 454 Knots Altitude 25036 ft
17:22 Wind:218@024 Knots Heading: 339 Ground Speed: 463 Knots Altitude 25078 ft
17:26 TOD
17:26 Fuel Weight: 16902 Lb
17:37 Wind:233@012 Knots Heading: 350 Ground Speed: 288 Knots Altitude 9009 ft
17:40 Flaps:1 at 243 Knots
17:42 Flaps:2 at 193 Knots
17:44 Flaps:3 at 161 Knots
17:44 Gear Down: 160 Knots
17:47 TouchDown:Rate -598 ft/min Speed: 158 Knots
17:47 VATSIM:LEAS 021730Z 29007KT 4000 0900NW BCFG SCT002 BKN006 17/17 Q1017 TEMPO 2000 BR BKN005
17:47 Land
17:47 Wind:300@004 Knots
17:47 Heading: 295
17:47 Flight Duration: 01:10
17:47 Landing Weight: 97775 Lbs
17:47 POS N43 33 49 W006 02 04
17:51 Parking brakes on
17:51 Block to Block Duratio
n: 01:20
17:51 Final Fuel: 15771 Lbls
17:51 Spent Fuel: 6924 Lbls
17:51 Flight Length: 431 NM
17:51 TOD Land Length: 101 NM

Exportar CSV

Powered by Drupal - Modified by Danger4k